Time;durP1;ratioP1;P1;durP2;ratioP2;P2;SDS_P1;SDS_P2;PMS_P1;PMS_P2;Temp;Humidity;BMP_temperature;BMP_pressure;BME280_temperature;BME280_humidity;BME280_pressure;Samples;Min_cycle;Max_cycle;Signal;HPM_P1;HPM_P2
2022/12/02 00:00:25;;;;;;;75.78;24.42;;;;;;;5.52;46.82;102894.31;7396650;19;20006;-58
2022/12/02 00:02:53;;;;;;;61.58;23.63;;;;;;;5.60;46.75;102889.50;7397296;19;20029;-58
2022/12/02 00:05:33;;;;;;;65.93;22.60;;;;;;;5.41;47.22;102892.56;7396620;19;20002;-57
2022/12/02 00:08:01;;;;;;;63.83;23.33;;;;;;;5.30;47.43;102890.78;7394962;19;20002;-58
2022/12/02 00:10:30;;;;;;;67.35;22.52;;;;;;;5.20;47.62;102892.28;7396594;19;19998;-57
2022/12/02 00:13:09;;;;;;;58.38;22.70;;;;;;;5.27;47.43;102888.56;7396366;19;20028;-58
2022/12/02 00:15:37;;;;;;;55.45;22.20;;;;;;;5.32;47.25;102883.25;7395105;19;19987;-58
2022/12/02 00:18:03;;;;;;;64.57;22.85;;;;;;;5.18;47.42;102878.19;7395423;19;20031;-57
2022/12/02 00:20:28;;;;;;;60.75;23.23;;;;;;;5.33;46.97;102879.47;7395508;19;20002;-58
2022/12/02 00:22:54;;;;;;;57.83;21.98;;;;;;;5.41;47.05;102870.91;7394658;19;20081;-58
2022/12/02 00:25:20;;;;;;;62.30;22.67;;;;;;;5.52;46.86;102879.94;7395034;19;20016;-58
2022/12/02 00:27:46;;;;;;;63.28;22.67;;;;;;;5.57;46.78;102875.41;7393804;19;20018;-59
2022/12/02 00:30:12;;;;;;;59.58;21.33;;;;;;;5.45;46.86;102876.63;7393716;19;20001;-58
2022/12/02 00:32:37;;;;;;;61.50;22.25;;;;;;;5.27;47.46;102875.03;7394739;19;19998;-58
2022/12/02 00:35:03;;;;;;;59.42;22.23;;;;;;;5.33;47.46;102869.44;7394280;19;19995;-58
2022/12/02 00:37:29;;;;;;;61.30;23.08;;;;;;;5.28;47.40;102871.25;7395060;19;19999;-59
2022/12/02 00:39:55;;;;;;;64.32;22.48;;;;;;;5.40;47.47;102868.44;7394848;19;19991;-59
2022/12/02 00:42:21;;;;;;;64.25;22.20;;;;;;;5.46;46.96;102862.00;7393417;19;20069;-58
2022/12/02 00:47:30;;;;;;;64.65;22.17;;;;;;;5.33;47.35;102863.22;7395953;19;19994;-60
2022/12/02 00:49:56;;;;;;;63.53;22.67;;;;;;;5.25;47.43;102861.75;7391371;19;20054;-59
2022/12/02 00:52:22;;;;;;;59.05;22.42;;;;;;;5.29;47.47;102859.34;7393000;19;19991;-60
2022/12/02 00:54:47;;;;;;;63.55;22.85;;;;;;;5.23;47.52;102863.91;7391801;19;20022;-58
2022/12/02 00:57:13;;;;;;;64.28;22.38;;;;;;;5.20;47.55;102865.22;7392428;19;20022;-59
2022/12/02 00:59:39;;;;;;;51.70;20.77;;;;;;;5.39;47.20;102867.63;7391088;19;20103;-59
2022/12/02 01:02:04;;;;;;;60.63;20.95;;;;;;;5.42;47.10;102872.50;7390449;19;19999;-58
2022/12/02 01:04:30;;;;;;;55.00;19.88;;;;;;;5.32;47.02;102862.41;7390779;19;19994;-58
2022/12/02 01:06:56;;;;;;;54.80;20.35;;;;;;;5.41;47.03;102864.63;7389778;19;20006;-58
2022/12/02 01:09:22;;;;;;;53.65;20.25;;;;;;;5.32;46.98;102861.56;7390932;19;19998;-58
2022/12/02 01:11:47;;;;;;;48.75;18.67;;;;;;;5.14;47.21;102857.28;7392061;19;19991;-58
2022/12/02 01:14:13;;;;;;;56.42;20.38;;;;;;;5.20;47.13;102854.38;7392261;19;20412;-58
2022/12/02 01:16:39;;;;;;;50.92;20.23;;;;;;;5.24;46.95;102849.31;7391129;19;20341;-58
2022/12/02 01:19:04;;;;;;;49.67;20.60;;;;;;;5.34;46.93;102848.59;7390621;19;20467;-58
2022/12/02 01:21:30;;;;;;;50.88;19.45;;;;;;;5.37;46.53;102845.38;7391204;19;19997;-59
2022/12/02 01:23:56;;;;;;;53.35;19.45;;;;;;;5.20;46.72;102846.25;7391827;19;19995;-58
2022/12/02 01:26:22;;;;;;;51.78;18.88;;;;;;;5.25;46.78;102853.63;7391268;19;20335;-59
2022/12/02 01:28:47;;;;;;;55.88;20.00;;;;;;;5.22;46.86;102851.41;7389804;19;20027;-60
2022/12/02 01:31:14;;;;;;;52.92;19.60;;;;;;;5.16;46.90;102847.84;7392140;19;20493;-60
2022/12/02 01:33:40;;;;;;;54.05;19.20;;;;;;;5.27;46.82;102854.19;7391283;19;20029;-59
2022/12/02 01:36:06;;;;;;;54.13;19.70;;;;;;;5.35;46.35;102850.25;7389697;19;20479;-60
2022/12/02 01:38:32;;;;;;;51.28;19.48;;;;;;;5.33;46.49;102855.09;7388743;19;20007;-60
2022/12/02 01:40:58;;;;;;;46.40;17.88;;;;;;;5.31;46.48;102854.50;7389503;19;20018;-60
2022/12/02 01:43:24;;;;;;;51.05;18.60;;;;;;;5.30;46.47;102855.56;7391306;19;20006;-59
2022/12/02 01:45:50;;;;;;;49.65;18.83;;;;;;;5.35;46.34;102859.16;7389917;19;20003;-60
2022/12/02 01:48:16;;;;;;;44.58;18.10;;;;;;;5.05;46.93;102854.22;7389431;19;20019;-59
2022/12/02 01:50:42;;;;;;;51.92;18.38;;;;;;;5.11;46.81;102852.41;7390835;19;19999;-59
2022/12/02 01:53:09;;;;;;;47.92;18.50;;;;;;;5.10;46.87;102851.56;7399148;19;20033;-58
2022/12/02 01:55:35;;;;;;;53.00;18.88;;;;;;;5.23;46.69;102846.84;7404248;19;20011;-60
2022/12/02 01:58:01;;;;;;;50.72;18.45;;;;;;;5.23;46.71;102852.25;7403709;19;20014;-59
2022/12/02 02:00:28;;;;;;;45.92;17.48;;;;;;;5.14;47.07;102851.88;7403065;19;20002;-59
2022/12/02 02:02:54;;;;;;;48.10;18.73;;;;;;;5.26;46.62;102846.34;7404682;19;20018;-59
2022/12/02 02:05:23;;;;;;;52.28;18.52;;;;;;;5.22;46.77;102850.63;7403949;19;20023;-58
2022/12/02 02:07:52;;;;;;;49.25;18.38;;;;;;;5.15;47.00;102851.63;7402147;19;20016;-59
2022/12/02 02:10:20;;;;;;;52.78;18.73;;;;;;;4.97;47.42;102849.25;7403198;19;20466;-60
2022/12/02 02:12:47;;;;;;;55.38;20.23;;;;;;;5.02;47.24;102841.19;7404233;19;20066;-60
2022/12/02 02:15:14;;;;;;;59.45;20.88;;;;;;;5.05;47.41;102837.97;7404214;19;20009;-59
2022/12/02 02:17:40;;;;;;;64.57;21.48;;;;;;;4.91;47.60;102837.56;7403983;19;20009;-60
2022/12/02 02:20:11;;;;;;;60.35;21.67;;;;;;;4.85;47.89;102833.16;7404520;19;19999;-59
2022/12/02 02:22:49;;;;;;;60.50;20.63;;;;;;;4.94;47.84;102826.22;7404246;19;20522;-58
2022/12/02 02:25:16;;;;;;;63.80;22.88;;;;;;;4.84;47.67;102828.81;7403624;19;19999;-59
2022/12/02 02:27:52;;;;;;;63.05;22.23;;;;;;;4.80;48.17;102828.47;7402364;19;20002;-58
2022/12/02 02:30:18;;;;;;;63.33;22.25;;;;;;;5.04;47.42;102828.25;7403376;19;20006;-58
2022/12/02 02:32:44;;;;;;;68.05;22.27;;;;;;;5.17;47.09;102819.72;7404544;19;20007;-59
2022/12/02 02:35:10;;;;;;;63.53;23.23;;;;;;;5.19;47.36;102822.97;7402872;19;20011;-59
2022/12/02 02:37:36;;;;;;;60.90;22.38;;;;;;;5.36;47.13;102819.38;7403050;19;20006;-59
2022/12/02 02:40:02;;;;;;;66.57;22.92;;;;;;;5.15;47.23;102818.31;7405071;19;19999;-60
2022/12/02 02:42:37;;;;;;;60.67;21.98;;;;;;;5.12;47.47;102818.81;7400905;19;20034;-62
2022/12/02 02:45:03;;;;;;;63.25;22.60;;;;;;;5.23;47.27;102820.56;7402716;19;20003;-59
2022/12/02 02:47:29;;;;;;;62.35;22.63;;;;;;;5.11;47.42;102809.09;7402414;19;20021;-60
2022/12/02 02:49:56;;;;;;;69.60;22.13;;;;;;;5.18;47.30;102807.00;7403814;19;19998;-60
2022/12/02 02:52:21;;;;;;;63.63;22.70;;;;;;;5.25;47.34;102802.19;7401244;19;20385;-60
2022/12/02 02:54:47;;;;;;;61.83;23.08;;;;;;;5.11;47.55;102799.06;7403483;19;19995;-59
2022/12/02 02:57:13;;;;;;;52.80;21.48;;;;;;;5.05;47.71;102801.97;7403155;19;20022;-60
2022/12/02 02:59:40;;;;;;;56.28;22.65;;;;;;;5.02;47.88;102803.28;7403678;19;20069;-60
2022/12/02 03:02:09;;;;;;;58.70;22.27;;;;;;;5.04;47.80;102805.75;7403673;19;19999;-59
2022/12/02 03:04:35;;;;;;;58.92;23.85;;;;;;;5.14;47.51;102803.16;7395791;19;20017;-58
2022/12/02 03:07:01;;;;;;;60.60;22.17;;;;;;;5.04;47.57;102798.47;7394586;19;20025;-58
2022/12/02 03:09:27;;;;;;;56.90;21.77;;;;;;;4.95;47.98;102805.38;7396600;19;20002;-60
2022/12/02 03:12:02;;;;;;;58.30;22.00;;;;;;;4.98;47.81;102796.75;7396261;19;19999;-60
2022/12/02 03:14:29;;;;;;;56.00;20.45;;;;;;;5.23;47.14;102790.78;7393722;19;20351;-60
2022/12/02 03:16:56;;;;;;;60.90;22.15;;;;;;;5.11;47.46;102796.38;7395547;19;20011;-59
2022/12/02 03:19:22;;;;;;;66.43;23.10;;;;;;;5.10;47.39;102793.91;7391806;19;20025;-60
2022/12/02 03:21:48;;;;;;;57.05;21.25;;;;;;;5.04;47.52;102801.16;7396274;19;20455;-59
2022/12/02 03:24:14;;;;;;;59.88;22.90;;;;;;;5.16;47.29;102799.13;7394133;19;19998;-60
2022/12/02 03:26:40;;;;;;;63.92;22.55;;;;;;;5.10;47.47;102789.31;7394720;19;20010;-60
2022/12/02 03:29:13;;;;;;;63.97;23.33;;;;;;;5.09;47.49;102789.56;7391706;19;20006;-60
2022/12/02 03:31:46;;;;;;;64.85;22.85;;;;;;;5.08;47.84;102791.47;7393888;19;20014;-60
2022/12/02 03:34:12;;;;;;;64.00;23.60;;;;;;;5.05;47.64;102789.25;7395651;19;20006;-60
2022/12/02 03:36:38;;;;;;;62.42;22.50;;;;;;;5.04;47.82;102792.22;7393579;19;20006;-60
2022/12/02 03:39:05;;;;;;;66.65;23.38;;;;;;;4.98;47.89;102788.66;7391256;19;19995;-60
2022/12/02 03:41:31;;;;;;;68.22;23.02;;;;;;;5.01;47.95;102788.94;7395148;19;20006;-60
2022/12/02 03:43:57;;;;;;;67.18;23.77;;;;;;;5.17;47.58;102779.13;7394334;19;20469;-59
2022/12/02 03:46:24;;;;;;;69.43;24.50;;;;;;;5.13;47.89;102783.38;7394705;19;20057;-59
2022/12/02 03:48:51;;;;;;;69.13;25.23;;;;;;;5.20;47.70;102781.28;7390911;19;19995;-59
2022/12/02 03:51:17;;;;;;;72.53;24.65;;;;;;;5.02;48.16;102787.88;7394985;19;19999;-58
2022/12/02 03:53:44;;;;;;;66.80;23.48;;;;;;;4.98;48.28;102785.94;7394721;19;20009;-58
2022/12/02 03:56:10;;;;;;;73.60;25.30;;;;;;;5.04;48.24;102784.94;7394452;19;20003;-59
2022/12/02 03:58:39;;;;;;;65.05;23.33;;;;;;;4.82;48.95;102785.78;7393038;19;20012;-60
2022/12/02 04:01:05;;;;;;;59.72;21.27;;;;;;;4.88;48.70;102775.00;7394466;19;20010;-59
2022/12/02 04:03:31;;;;;;;54.88;19.45;;;;;;;4.98;48.36;102777.81;7393858;19;20001;-59
2022/12/02 04:05:57;;;;;;;54.47;20.23;;;;;;;5.05;48.07;102780.31;7393763;19;20351;-59
2022/12/02 04:08:23;;;;;;;58.47;20.50;;;;;;;4.76;49.01;102786.78;7392249;19;20333;-59
2022/12/02 04:10:48;;;;;;;58.33;18.77;;;;;;;4.76;48.97;102772.44;7393984;19;20067;-60
2022/12/02 04:13:14;;;;;;;47.42;18.20;;;;;;;4.85;48.49;102773.63;7393858;19;19998;-59
2022/12/02 04:15:46;;;;;;;51.53;18.83;;;;;;;4.78;48.72;102767.59;7392944;19;20407;-59
2022/12/02 04:18:12;;;;;;;52.95;18.35;;;;;;;4.82;48.68;102771.41;7392545;19;20015;-59
2022/12/02 04:20:38;;;;;;;48.50;19.27;;;;;;;4.91;48.41;102764.50;7393722;19;20090;-60
2022/12/02 04:23:03;;;;;;;47.40;17.80;;;;;;;4.97;48.20;102768.06;7393684;19;20707;-60
2022/12/02 04:25:29;;;;;;;49.38;17.75;;;;;;;4.78;48.60;102763.00;7393004;19;20014;-60
2022/12/02 04:27:55;;;;;;;50.85;17.55;;;;;;;4.85;48.14;102770.09;7391530;19;20543;-60
2022/12/02 04:30:20;;;;;;;42.38;16.98;;;;;;;4.80;48.18;102768.97;7393441;19;20484;-60
2022/12/02 04:32:46;;;;;;;41.50;17.00;;;;;;;4.78;47.89;102771.09;7393694;19;20443;-60
2022/12/02 04:35:12;;;;;;;47.42;17.17;;;;;;;4.84;47.85;102772.00;7390719;19;20368;-60
2022/12/02 04:37:37;;;;;;;49.88;17.45;;;;;;;4.79;47.96;102777.34;7393357;19;19990;-60
2022/12/02 04:40:04;;;;;;;55.17;20.85;;;;;;;4.67;47.83;102773.94;7391517;19;20300;-60
2022/12/02 04:42:30;;;;;;;52.83;19.67;;;;;;;4.58;48.30;102782.50;7392299;19;20486;-59
2022/12/02 04:44:56;;;;;;;64.80;21.02;;;;;;;4.50;48.17;102777.53;7392292;19;19998;-59
2022/12/02 04:47:21;;;;;;;63.15;21.08;;;;;;;4.51;48.04;102775.66;7391773;19;20486;-60
2022/12/02 04:49:47;;;;;;;58.83;20.58;;;;;;;4.54;47.89;102777.84;7390569;19;20325;-59
2022/12/02 04:52:13;;;;;;;57.70;21.55;;;;;;;4.33;48.22;102779.47;7393083;19;20003;-60
2022/12/02 04:54:38;;;;;;;58.72;23.20;;;;;;;4.35;48.26;102778.16;7392782;19;20009;-61
2022/12/02 04:57:04;;;;;;;59.10;21.02;;;;;;;4.43;47.79;102772.31;7392124;19;20331;-61
2022/12/02 04:59:30;;;;;;;56.55;21.80;;;;;;;4.53;47.36;102778.94;7392044;19;20002;-59
2022/12/02 05:01:55;;;;;;;54.15;20.63;;;;;;;4.61;47.14;102779.31;7391976;19;20466;-61
2022/12/02 05:04:21;;;;;;;54.80;21.00;;;;;;;4.53;47.01;102779.75;7392639;19;19998;-60
2022/12/02 05:06:47;;;;;;;54.03;22.13;;;;;;;4.40;47.40;102775.50;7391350;19;19997;-60
2022/12/02 05:09:13;;;;;;;52.75;21.13;;;;;;;4.43;47.05;102768.78;7390658;19;20005;-61
2022/12/02 05:11:38;;;;;;;52.60;21.25;;;;;;;4.41;47.07;102774.44;7391951;19;20025;-58
2022/12/02 05:14:04;;;;;;;56.00;21.40;;;;;;;4.53;46.94;102776.22;7393464;19;20446;-60
2022/12/02 05:16:30;;;;;;;50.33;20.80;;;;;;;4.43;46.90;102768.78;7393289;19;19999;-60
2022/12/02 05:18:55;;;;;;;49.42;20.42;;;;;;;4.48;46.60;102768.06;7392343;19;20471;-59
2022/12/02 05:21:21;;;;;;;54.05;22.05;;;;;;;4.59;46.18;102772.53;7392238;19;20015;-59
2022/12/02 05:23:47;;;;;;;48.60;21.40;;;;;;;4.53;46.17;102774.31;7394026;19;19995;-59
2022/12/02 05:26:12;;;;;;;57.28;22.52;;;;;;;4.56;46.05;102776.53;7392613;19;20497;-60
2022/12/02 05:28:38;;;;;;;56.15;22.75;;;;;;;4.35;46.48;102770.03;7386776;19;20474;-60
2022/12/02 05:31:04;;;;;;;56.47;23.95;;;;;;;4.31;46.70;102770.81;7394265;19;20013;-59
2022/12/02 05:33:30;;;;;;;55.67;23.45;;;;;;;4.30;46.46;102780.78;7392274;19;19999;-59
2022/12/02 05:35:55;;;;;;;60.58;24.85;;;;;;;4.36;46.28;102773.59;7389144;19;20003;-59
2022/12/02 05:38:21;;;;;;;58.38;23.55;;;;;;;4.36;46.28;102768.19;7390329;19;20002;-60
2022/12/02 05:40:47;;;;;;;63.20;23.92;;;;;;;4.32;46.42;102773.28;7391190;19;20413;-58
2022/12/02 05:43:18;;;;;;;59.70;23.70;;;;;;;4.39;46.19;102762.28;7391775;19;20033;-60
2022/12/02 05:45:44;;;;;;;57.63;23.52;;;;;;;4.37;46.49;102764.38;7389765;19;20006;-59
2022/12/02 05:48:15;;;;;;;61.45;24.13;;;;;;;4.38;46.48;102768.72;7388544;19;20018;-60
2022/12/02 05:50:42;;;;;;;60.92;25.58;;;;;;;4.43;46.33;102768.78;7389819;19;20290;-59
2022/12/02 05:53:22;;;;;;;58.88;24.65;;;;;;;4.50;46.19;102763.19;7388825;19;20006;-59
2022/12/02 05:55:59;;;;;;;54.38;24.58;;;;;;;4.52;46.01;102771.88;7390537;19;20030;-59
2022/12/02 05:58:25;;;;;;;61.95;24.45;;;;;;;4.50;46.02;102777.53;7389381;19;20088;-59
2022/12/02 06:00:55;;;;;;;62.05;25.05;;;;;;;4.51;45.96;102775.66;7391209;19;20463;-59
2022/12/02 06:03:21;;;;;;;55.33;23.27;;;;;;;4.45;46.33;102772.91;7388345;19;20489;-58
2022/12/02 06:05:48;;;;;;;57.97;24.35;;;;;;;4.53;45.76;102770.81;7388499;19;19994;-58
2022/12/02 06:08:22;;;;;;;59.92;23.85;;;;;;;4.36;46.04;102782.50;7386482;19;20439;-58
2022/12/02 06:10:50;;;;;;;63.47;25.13;;;;;;;4.46;46.06;102773.72;7390522;19;20331;-58
2022/12/02 06:13:20;;;;;;;61.67;25.10;;;;;;;4.21;46.26;102777.69;7390429;19;20003;-59
2022/12/02 06:15:47;;;;;;;57.13;25.08;;;;;;;4.25;46.32;102784.25;7390125;19;20002;-60
2022/12/02 06:18:17;;;;;;;59.15;24.55;;;;;;;4.37;46.17;102781.44;7389024;19;20074;-59
2022/12/02 06:20:45;;;;;;;63.50;26.08;;;;;;;4.36;46.05;102779.00;7388519;19;20007;-59
2022/12/02 06:23:14;;;;;;;59.15;26.42;;;;;;;4.38;46.01;102782.25;7389558;19;20010;-59
2022/12/02 06:25:41;;;;;;;64.28;25.92;;;;;;;4.18;46.66;102778.19;7389705;19;19994;-60
2022/12/02 06:28:24;;;;;;;66.10;27.45;;;;;;;4.14;46.66;102778.94;7387630;19;20025;-60
2022/12/02 06:30:54;;;;;;;64.13;25.27;;;;;;;4.25;46.39;102788.84;7390367;19;20022;-59
2022/12/02 06:33:27;;;;;;;65.03;26.48;;;;;;;4.33;46.38;102784.91;7390218;19;20006;-60
2022/12/02 06:35:55;;;;;;;64.47;27.08;;;;;;;4.39;46.21;102795.53;7388862;19;20063;-57
2022/12/02 06:38:29;;;;;;;70.65;28.48;;;;;;;4.26;46.62;102788.59;7388961;19;19998;-59
2022/12/02 06:40:59;;;;;;;70.70;27.85;;;;;;;4.36;46.44;102787.09;7394877;19;20005;-59
2022/12/02 06:43:28;;;;;;;70.65;27.95;;;;;;;4.36;46.49;102792.50;7396950;19;20018;-59
2022/12/02 06:45:54;;;;;;;68.15;27.90;;;;;;;4.34;46.28;102787.34;7395402;19;20038;-58
2022/12/02 06:48:30;;;;;;;64.43;27.48;;;;;;;4.21;46.82;102783.09;7395004;19;20002;-60
2022/12/02 06:51:04;;;;;;;72.28;28.00;;;;;;;4.36;46.42;102790.63;7396491;19;20002;-59
2022/12/02 06:53:36;;;;;;;67.65;27.38;;;;;;;4.30;46.68;102785.38;7395974;19;20002;-59
2022/12/02 06:56:26;;;;;;;72.90;28.63;;;;;;;4.44;46.38;102798.28;7395393;19;20010;-59
2022/12/02 06:58:59;;;;;;;69.93;28.08;;;;;;;4.44;46.49;102798.28;7392392;19;20003;-59
2022/12/02 07:01:37;;;;;;;67.25;27.52;;;;;;;4.46;46.51;102800.75;7391775;19;20014;-57
2022/12/02 07:04:05;;;;;;;69.30;27.40;;;;;;;4.41;46.71;102806.09;7397033;19;20001;-57
2022/12/02 07:06:32;;;;;;;65.13;27.58;;;;;;;4.41;46.55;102797.97;7393933;19;20006;-58
2022/12/02 07:09:05;;;;;;;76.90;29.55;;;;;;;4.31;46.95;102801.38;7394597;19;20002;-58
2022/12/02 07:11:50;;;;;;;66.93;28.35;;;;;;;4.41;46.88;102797.97;7394120;19;20007;-59
2022/12/02 07:14:39;;;;;;;69.85;27.90;;;;;;;4.34;47.05;102800.88;7395121;19;20002;-58
2022/12/02 07:17:31;;;;;;;71.32;29.98;;;;;;;4.47;46.42;102802.38;7396567;19;20006;-58
2022/12/02 07:20:05;;;;;;;73.88;29.08;;;;;;;4.55;46.55;102814.66;7395988;19;19999;-59
2022/12/02 07:22:35;;;;;;;74.82;30.33;;;;;;;4.50;46.62;102806.47;7394214;19;19995;-57
2022/12/02 07:25:20;;;;;;;73.90;29.40;;;;;;;4.61;46.37;102805.53;7395671;19;20006;-57
2022/12/02 07:27:48;;;;;;;72.20;30.13;;;;;;;4.46;46.81;102801.56;7394196;19;20003;-58
2022/12/02 07:30:20;;;;;;;71.35;29.30;;;;;;;4.53;46.78;102808.69;7395402;19;20016;-58
2022/12/02 07:32:45;;;;;;;76.10;29.90;;;;;;;4.46;46.99;102811.56;7395185;19;20022;-57
2022/12/02 07:35:11;;;;;;;77.53;30.17;;;;;;;4.54;46.69;102810.28;7393745;19;20356;-57
2022/12/02 07:37:37;;;;;;;76.97;30.63;;;;;;;4.25;47.41;102810.47;7395131;19;20006;-58
2022/12/02 07:40:03;;;;;;;71.72;30.73;;;;;;;4.40;47.08;102807.16;7395163;19;20059;-57
2022/12/02 07:42:29;;;;;;;67.57;28.75;;;;;;;4.46;46.98;102806.16;7395413;19;19994;-59
2022/12/02 07:44:55;;;;;;;74.03;30.40;;;;;;;4.52;46.78;102815.97;7393043;19;20452;-59
2022/12/02 07:47:20;;;;;;;72.57;29.75;;;;;;;4.39;46.87;102819.88;7394180;19;19997;-58
2022/12/02 07:49:46;;;;;;;70.32;29.40;;;;;;;4.49;46.89;102810.22;7393543;19;20020;-58
2022/12/02 07:52:12;;;;;;;77.97;29.08;;;;;;;4.46;46.71;102812.38;7394685;19;19995;-58
2022/12/02 07:54:37;;;;;;;70.72;30.05;;;;;;;4.43;47.01;102809.34;7394850;19;20003;-59
2022/12/02 07:57:03;;;;;;;69.22;29.35;;;;;;;4.37;47.01;102807.66;7393906;19;20002;-58
2022/12/02 07:59:29;;;;;;;68.38;28.65;;;;;;;4.36;46.86;102811.44;7391557;19;19998;-58
2022/12/02 08:01:55;;;;;;;67.13;29.67;;;;;;;4.21;47.33;102820.16;7392127;19;20011;-58
2022/12/02 08:04:20;;;;;;;67.50;30.40;;;;;;;4.30;47.04;102807.00;7392653;19;19999;-58
2022/12/02 08:06:46;;;;;;;64.55;28.83;;;;;;;4.26;47.05;102814.81;7392218;19;20003;-58
2022/12/02 08:09:12;;;;;;;67.78;30.33;;;;;;;4.49;46.79;102816.47;7394660;19;19998;-58
2022/12/02 08:11:38;;;;;;;62.50;27.80;;;;;;;4.41;46.87;102817.72;7389564;19;20493;-59
2022/12/02 08:14:04;;;;;;;70.72;30.70;;;;;;;4.42;46.80;102816.66;7393700;19;20009;-59
2022/12/02 08:16:29;;;;;;;68.47;28.95;;;;;;;4.54;46.42;102811.13;7393542;19;20002;-58
2022/12/02 08:18:55;;;;;;;66.72;29.50;;;;;;;4.61;46.63;102813.66;7393362;19;20486;-58
2022/12/02 08:21:21;;;;;;;62.10;29.30;;;;;;;4.62;46.33;102809.84;7392187;19;20074;-57
2022/12/02 08:23:47;;;;;;;66.07;29.17;;;;;;;4.59;46.69;102810.38;7393415;19;20011;-58
2022/12/02 08:26:12;;;;;;;61.08;28.77;;;;;;;4.66;46.29;102805.59;7391300;19;20075;-58
2022/12/02 08:28:38;;;;;;;58.03;28.27;;;;;;;4.66;46.23;102816.41;7389950;19;19998;-57
2022/12/02 08:31:04;;;;;;;60.92;29.92;;;;;;;4.59;46.71;102815.78;7392700;19;20032;-57
2022/12/02 08:33:30;;;;;;;66.88;30.23;;;;;;;4.53;46.67;102816.78;7393079;19;20487;-57
2022/12/02 08:35:55;;;;;;;66.78;29.80;;;;;;;4.61;46.48;102811.75;7392997;19;19995;-57
2022/12/02 08:38:21;;;;;;;63.50;28.73;;;;;;;4.57;46.77;102824.16;7392047;19;20458;-58
2022/12/02 08:40:47;;;;;;;62.05;28.98;;;;;;;4.72;46.76;102822.69;7390525;19;19999;-59
2022/12/02 08:43:12;;;;;;;62.50;28.90;;;;;;;4.62;46.85;102831.50;7393340;19;20009;-59
2022/12/02 08:45:38;;;;;;;67.90;28.83;;;;;;;4.77;46.71;102834.41;7392203;19;20007;-58
2022/12/02 08:48:04;;;;;;;60.85;28.50;;;;;;;4.74;46.49;102826.81;7392038;19;19994;-58
2022/12/02 08:50:30;;;;;;;59.80;28.75;;;;;;;4.55;47.20;102825.47;7391722;19;20005;-58
2022/12/02 08:52:55;;;;;;;63.97;29.85;;;;;;;4.68;46.73;102824.28;7393338;19;19999;-58
2022/12/02 08:55:21;;;;;;;63.00;29.65;;;;;;;4.55;46.91;102831.69;7391714;19;20032;-58
2022/12/02 08:57:47;;;;;;;62.05;29.33;;;;;;;4.49;47.20;102826.47;7392352;19;20007;-59
2022/12/02 09:00:13;;;;;;;63.47;29.50;;;;;;;4.53;47.11;102830.31;7388811;19;20040;-57
2022/12/02 09:02:39;;;;;;;62.10;28.40;;;;;;;4.57;46.91;102826.03;7389961;19;20006;-57
2022/12/02 09:05:05;;;;;;;64.22;28.92;;;;;;;4.56;46.87;102827.13;7392408;19;20327;-57
2022/12/02 09:07:31;;;;;;;59.75;28.17;;;;;;;4.68;46.71;102829.69;7391005;19;20325;-57
2022/12/02 09:09:56;;;;;;;63.33;30.40;;;;;;;4.59;46.67;102834.72;7391654;19;19998;-57
2022/12/02 09:12:23;;;;;;;60.80;29.15;;;;;;;4.50;47.14;102838.91;7391677;19;19990;-58
2022/12/02 09:14:49;;;;;;;59.78;29.08;;;;;;;4.45;47.00;102843.22;7390925;19;20467;-58
2022/12/02 09:17:15;;;;;;;56.08;27.40;;;;;;;4.54;46.84;102840.88;7389725;19;19998;-58
2022/12/02 09:19:41;;;;;;;58.60;27.85;;;;;;;4.49;47.14;102832.72;7391213;19;19999;-58
2022/12/02 09:22:06;;;;;;;62.45;28.58;;;;;;;4.56;46.74;102838.75;7391224;19;19995;-58
2022/12/02 09:24:32;;;;;;;59.50;28.13;;;;;;;4.66;46.55;102843.47;7391632;19;20006;-58
2022/12/02 09:26:58;;;;;;;58.47;28.27;;;;;;;4.71;46.46;102842.72;7390128;19;20013;-58
2022/12/02 09:29:23;;;;;;;63.83;29.35;;;;;;;4.66;46.60;102837.25;7391227;19;20087;-58
2022/12/02 09:31:56;;;;;;;60.60;28.63;;;;;;;4.49;46.88;102842.69;7389626;19;20008;-58
2022/12/02 09:34:21;;;;;;;58.58;29.17;;;;;;;4.60;46.60;102844.47;7390814;19;20044;-58
2022/12/02 09:36:47;;;;;;;58.45;28.88;;;;;;;4.58;46.69;102838.50;7391494;19;20002;-58
2022/12/02 09:39:13;;;;;;;56.50;27.73;;;;;;;4.67;46.63;102847.78;7389757;19;20222;-57
2022/12/02 09:41:39;;;;;;;62.47;28.33;;;;;;;4.58;46.72;102835.78;7390180;19;19998;-59
2022/12/02 09:44:04;;;;;;;61.72;29.42;;;;;;;4.78;46.34;102838.75;7389113;19;20002;-57
2022/12/02 09:46:30;;;;;;;62.22;28.02;;;;;;;4.86;46.10;102834.78;7391207;19;20007;-57
2022/12/02 09:48:57;;;;;;;55.47;27.15;;;;;;;4.80;46.32;102836.59;7389047;19;20032;-57
2022/12/02 09:51:23;;;;;;;58.88;29.08;;;;;;;4.85;46.09;102835.03;7389739;19;19998;-57
2022/12/02 09:53:49;;;;;;;58.67;29.02;;;;;;;4.85;46.00;102833.16;7390620;19;20465;-59
2022/12/02 09:56:17;;;;;;;58.13;28.05;;;;;;;4.89;45.95;102826.19;7389861;19;20356;-58
2022/12/02 09:58:46;;;;;;;60.30;28.38;;;;;;;4.70;46.40;102833.78;7388618;19;20002;-57
2022/12/02 10:01:13;;;;;;;60.40;28.55;;;;;;;4.78;46.45;102835.22;7388852;19;20095;-57
2022/12/02 10:03:40;;;;;;;58.53;27.50;;;;;;;4.85;46.10;102833.16;7391308;19;20091;-58
2022/12/02 10:06:12;;;;;;;56.30;28.42;;;;;;;4.90;46.02;102825.09;7388069;19;19990;-57
2022/12/02 10:08:38;;;;;;;55.65;27.35;;;;;;;4.88;45.98;102823.72;7389411;19;20010;-57
2022/12/02 10:11:05;;;;;;;61.47;29.10;;;;;;;4.87;45.96;102833.69;7387790;19;19999;-57
2022/12/02 10:13:38;;;;;;;60.72;29.48;;;;;;;4.73;46.26;102827.88;7393921;19;20109;-59
2022/12/02 10:16:12;;;;;;;55.15;27.27;;;;;;;4.89;46.15;102825.34;7396419;19;20021;-57
2022/12/02 10:18:39;;;;;;;54.05;27.63;;;;;;;4.99;45.67;102820.06;7398258;19;20061;-58
2022/12/02 10:21:05;;;;;;;56.42;27.70;;;;;;;5.04;45.48;102827.41;7395290;19;20026;-58
2022/12/02 10:23:31;;;;;;;52.35;26.35;;;;;;;5.14;45.32;102822.09;7398395;19;20059;-59
2022/12/02 10:26:12;;;;;;;54.85;26.65;;;;;;;5.05;45.29;102824.44;7394511;19;20409;-58
2022/12/02 10:28:39;;;;;;;56.55;26.60;;;;;;;5.10;45.50;102818.28;7394739;19;20328;-59
2022/12/02 10:31:21;;;;;;;54.25;26.35;;;;;;;5.09;45.36;102828.28;7394985;19;20006;-59
2022/12/02 10:33:59;;;;;;;52.15;25.23;;;;;;;4.97;45.53;102827.59;7398146;19;20008;-58
2022/12/02 10:36:39;;;;;;;52.63;25.25;;;;;;;4.87;45.67;102827.47;7395990;19;19993;-59
2022/12/02 10:39:20;;;;;;;55.53;25.88;;;;;;;4.92;45.24;102819.41;7395992;19;19995;-58
2022/12/02 10:42:08;;;;;;;54.83;27.02;;;;;;;4.93;45.78;102821.06;7394076;19;19998;-57
2022/12/02 10:44:41;;;;;;;49.15;24.00;;;;;;;4.99;45.41;102817.34;7397190;19;20003;-58
2022/12/02 10:47:22;;;;;;;52.90;25.92;;;;;;;5.08;45.13;102815.81;7395483;19;19998;-58
2022/12/02 10:49:54;;;;;;;48.65;24.08;;;;;;;5.11;45.22;102815.31;7396258;19;20015;-58
2022/12/02 10:52:25;;;;;;;47.33;24.15;;;;;;;5.10;45.08;102819.06;7396280;19;20002;-58
2022/12/02 10:54:53;;;;;;;51.40;26.02;;;;;;;4.94;45.45;102815.41;7396517;19;19994;-59
2022/12/02 10:57:25;;;;;;;50.42;26.27;;;;;;;5.02;45.16;102814.13;7396778;19;19999;-58
2022/12/02 10:59:52;;;;;;;54.40;25.88;;;;;;;5.10;45.15;102820.97;7395332;19;20484;-58
2022/12/02 11:02:29;;;;;;;50.83;25.05;;;;;;;5.00;45.19;102822.50;7393659;19;20017;-59
2022/12/02 11:05:00;;;;;;;50.78;25.25;;;;;;;5.11;44.99;102818.03;7395339;19;20018;-58
2022/12/02 11:07:26;;;;;;;53.20;25.83;;;;;;;5.21;44.85;102817.31;7395319;19;20022;-58
2022/12/02 11:09:55;;;;;;;52.22;26.75;;;;;;;5.20;44.85;102821.88;7393322;19;20002;-57
2022/12/02 11:12:33;;;;;;;46.55;24.30;;;;;;;5.18;44.96;102818.63;7396780;19;20017;-57
2022/12/02 11:15:00;;;;;;;49.50;24.77;;;;;;;5.05;44.99;102808.19;7394043;19;20003;-58
2022/12/02 11:17:47;;;;;;;51.50;26.27;;;;;;;5.04;45.11;102819.28;7394556;19;20027;-59
2022/12/02 11:20:39;;;;;;;50.42;25.48;;;;;;;5.12;45.01;102808.00;7395001;19;20017;-58
2022/12/02 11:23:32;;;;;;;48.17;23.60;;;;;;;4.93;45.13;102810.25;7395819;19;20013;-58